Latest Weather Observations for Mount Read

IDT60801

Issued at 4:32 am EST Saturday 2 July 2016 (issued every 30 minutes, with the page automatically refreshed every 10 minutes)

About weather observations | Map of weather stations | Latest weather observations for TAS | Other Formats
Station Details ID: 097085 Name: MOUNT READ Lat: -41.84 Lon: 145.54 Height: 1119.5 m
Data from the previous 72 hours. | See also: Recent months at Mount Read
Date/Time
EST
Temp
°C
App
Temp
°C
Dew
Point
°C
Rel
Hum
%
Delta-T
°C
Wind Press
QNH
hPa
Press
MSL
hPa
Rain since
9am
mm
Dir  Spd
km/h
Gust
km/h
Spd
kts
Gust
kts
02/04:30am 3.5 -2.1 3.5 100 0.0 WNW 22 39 12 21 1013.9 1016.1 29.4
02/04:00am 3.4 -5.4 3.4 100 0.0 WNW 39 57 21 31 1013.9 1016.1 29.2
02/03:37am 3.8 -3.8 3.8 100 0.0 WNW 33 56 18 30 1014.0 1016.2 27.2
02/03:30am 3.9 -3.1 3.9 100 0.0 WNW 30 46 16 25 1014.1 1016.3 26.6
02/03:18am 3.9 -3.1 3.9 100 0.0 WNW 30 54 16 29 1013.9 1016.1 26.2
02/03:00am 3.8 -2.5 3.8 100 0.0 WNW 26 39 14 21 1014.2 1016.5 25.6
02/02:44am 3.8 -3.8 3.8 100 0.0 WNW 33 54 18 29 1013.9 1016.1 25.0
02/02:30am 3.7 -2.2 3.7 100 0.0 WNW 24 39 13 21 1014.2 1016.5 24.2
02/02:00am 3.3 -4.4 3.3 100 0.0 WNW 33 46 18 25 1014.1 1016.3 23.6
02/01:31am 3.7 -3.4 3.7 100 0.0 WNW 30 50 16 27 1014.1 1016.3 23.0
02/01:30am 3.6 -3.1 3.6 100 0.0 WNW 28 41 15 22 1014.1 1016.3 23.0
02/01:00am 3.5 -6.3 3.5 100 0.0 WNW 44 63 24 34 1013.9 1016.1 21.6
02/12:39am 3.7 -3.8 3.7 100 0.0 WNW 32 52 17 28 1014.0 1016.2 20.4
02/12:30am 3.6 -3.9 3.6 100 0.0 WNW 32 46 17 25 1014.2 1016.5 20.4
02/12:14am 3.6 -3.1 3.6 100 0.0 WNW 28 46 15 25 1014.2 1016.5 20.0
02/12:00am 3.6 -1.6 3.6 100 0.0 NW 20 39 11 21 1014.3 1016.6 18.8
 
Date/Time
EST
Temp
°C
App
Temp
°C
Dew
Point
°C
Rel
Hum
%
Delta-T
°C
Wind Press
QNH
hPa
Press
MSL
hPa
Rain since
9am
mm
Dir  Spd
km/h
Gust
km/h
Spd
kts
Gust
kts
01/11:30pm 3.5 -4.0 3.5 100 0.0 WNW 32 56 17 30 1014.7 1016.9 16.8
01/11:24pm 3.3 -5.2 3.3 100 0.0 WNW 37 56 20 30 1014.2 1016.5 16.8
01/11:00pm 3.5 -2.8 3.5 100 0.0 WNW 26 43 14 23 1014.2 1016.5 16.8
01/10:30pm 3.5 -2.5 3.5 100 0.0 WNW 24 37 13 20 1014.2 1016.5 16.2
01/10:00pm 3.4 -3.3 3.4 100 0.0 WNW 28 44 15 24 1014.2 1016.5 15.8
01/09:35pm 3.7 -3.4 3.7 100 0.0 WNW 30 48 16 26 1014.2 1016.5 15.4
01/09:30pm 3.7 -4.3 3.7 100 0.0 WNW 35 48 19 26 1014.3 1016.6 15.0
01/09:20pm 3.7 -3.0 3.7 100 0.0 WNW 28 50 15 27 1014.1 1016.3 14.6
01/09:00pm 3.7 -2.6 3.7 100 0.0 WNW 26 41 14 22 1014.3 1016.6 14.2
01/08:59pm 3.7 -3.0 3.7 100 0.0 WNW 28 48 15 26 1014.4 1016.7 14.2
01/08:30pm 3.8 -1.2 3.8 100 0.0 WNW 19 35 10 19 1014.3 1016.6 13.6
01/08:00pm 3.7 -1.5 3.7 100 0.0 WNW 20 30 11 16 1014.0 1016.2 12.2
01/07:30pm 3.6 -3.5 3.6 100 0.0 WNW 30 44 16 24 1013.9 1016.1 11.2
01/07:00pm 3.6 -0.6 3.6 100 0.0 WNW 15 28 8 15 1014.0 1016.2 10.4
01/06:30pm 3.5 -2.8 3.5 100 0.0 WNW 26 44 14 24 1013.5 1015.8 10.0
01/06:00pm 3.6 -2.0 3.6 100 0.0 W 22 37 12 20 1013.2 1015.4 9.0
01/05:32pm 3.7 -3.0 3.7 100 0.0 WNW 28 56 15 30 1012.9 1015.1 7.4
01/05:30pm 3.7 -2.2 3.7 100 0.0 WNW 24 44 13 24 1012.9 1015.1 7.4
01/05:00pm 3.3 -2.3 3.3 100 0.0 WNW 22 35 12 19 1012.9 1015.1 6.0
01/04:36pm 3.2 -3.6 3.2 100 0.0 WNW 28 48 15 26 1013.0 1015.2 5.0
01/04:30pm 3.2 -4.0 3.2 100 0.0 WNW 30 48 16 26 1013.0 1015.2 4.8
01/04:05pm 3.1 -3.7 3.1 100 0.0 WNW 28 46 15 25 1012.5 1014.7 3.8
01/04:00pm 3.0 -3.8 3.0 100 0.0 WNW 28 37 15 20 1012.8 1015.0 3.4
01/03:33pm 3.0 -4.8 3.0 100 0.0 W 33 52 18 28 1012.4 1014.6 3.0
01/03:30pm 2.9 -5.3 2.9 100 0.0 W 35 52 19 28 1012.3 1014.5 3.0
01/03:00pm 2.6 -4.3 2.6 100 0.0 WNW 28 48 15 26 1012.2 1014.4 2.8
01/02:30pm 2.6 -3.9 2.6 100 0.0 W 26 37 14 20 1012.3 1014.5 2.0
01/02:00pm 2.7 -3.8 2.7 100 0.0 WNW 26 39 14 21 1012.2 1014.4 1.6
01/01:30pm 2.3 -5.4 2.3 100 0.0 W 32 44 17 24 1012.1 1014.3 1.2
01/01:05pm 2.2 -5.7 2.2 100 0.0 WNW 33 54 18 29 1011.8 1013.9 1.0
01/01:00pm 2.3 -5.0 2.3 100 0.0 WNW 30 41 16 22 1012.0 1014.2 1.0
01/12:34pm 2.2 -5.1 2.2 100 0.0 W 30 52 16 28 1012.0 1014.2 0.6
01/12:30pm 2.1 -5.3 2.1 100 0.0 WNW 30 46 16 25 1012.2 1014.4 0.6
01/12:00pm 1.6 -5.1 1.6 100 0.0 W 26 35 14 19 1012.4 1014.6 0.6
01/11:30am 1.2 -5.2 1.2 100 0.0 W 24 33 13 18 1012.4 1014.6 0.4
01/11:00am 1.4 -5.7 1.4 100 0.0 W 28 39 15 21 1012.5 1014.7 0.4
01/10:30am 0.6 -7.6 0.6 100 0.0 W 33 41 18 22 1012.3 1014.5 0.4
01/10:00am 0.8 -7.3 0.8 100 0.0 W 33 46 18 25 1012.1 1014.3 0.4
01/09:30am 1.4 -6.6 1.4 100 0.0 W 33 44 18 24 1011.8 1013.5 0.2
01/09:00am 1.6 -5.8 1.6 100 0.0 WSW 30 44 16 24 1011.3 1013.1 21.6
01/08:30am 1.9 -6.8 1.9 100 0.0 WSW 37 50 20 27 1011.0 1012.7 21.0
01/08:00am 2.0 -6.3 2.0 100 0.0 WSW 35 46 19 25 1010.6 1012.4 20.4
01/07:30am 2.0 -5.4 2.0 100 0.0 WSW 30 39 16 21 1010.5 1012.3 19.8
01/07:00am 2.2 -5.5 2.2 100 0.0 WSW 32 41 17 22 1010.2 1011.9 19.4
01/06:30am 2.1 -5.8 2.1 100 0.0 WSW 33 41 18 22 1009.5 1011.2 19.2
01/06:00am 1.7 -4.2 1.7 100 0.0 W 22 32 12 17 1009.3 1011.0 18.8
01/05:30am 1.5 -4.8 1.5 100 0.0 SW 24 30 13 16 1009.0 1010.7 18.6
01/05:00am 1.1 -6.4 1.1 100 0.0 SW 30 33 16 18 1008.6 1010.3 18.6
01/04:30am 0.8 -7.1 0.8 100 0.0 SW 32 37 17 20 1008.1 1009.8 18.6
01/04:00am 0.8 -7.3 0.8 100 0.0 SW 33 39 18 21 1007.6 1009.3 18.6
01/03:30am 1.0 -7.1 1.0 100 0.0 SW 33 41 18 22 1007.4 1009.1 18.6
01/03:00am 1.1 -6.8 1.1 100 0.0 SW 32 39 17 21 1007.4 1009.1 18.6
01/02:30am 1.4 -7.0 1.4 100 0.0 SSW 35 41 19 22 1007.1 1008.7 18.6
01/02:00am 1.6 -6.2 1.6 100 0.0 SW 32 39 17 21 1006.6 1008.3 18.6
01/01:30am 1.9 -5.9 1.9 100 0.0 SW 32 41 17 22 1006.1 1007.7 18.4
01/01:00am 1.9 -5.5 1.9 100 0.0 SSW 30 35 16 19 1005.3 1006.9 18.2
01/12:30am 2.0 -4.6 2.0 100 0.0 SSW 26 32 14 17 1005.1 1006.7 18.0
01/12:00am 2.2 -4.4 2.2 100 0.0 SSW 26 32 14 17 1005.0 1006.5 17.8
 
Date/Time
EST
Temp
°C
App
Temp
°C
Dew
Point
°C
Rel
Hum
%
Delta-T
°C
Wind Press
QNH
hPa
Press
MSL
hPa
Rain since
9am
mm
Dir  Spd
km/h
Gust
km/h
Spd
kts
Gust
kts
30/11:30pm 1.9 -5.9 1.9 100 0.0 SSW 32 39 17 21 1004.6 1006.2 17.8
30/11:00pm 1.6 -5.1 1.6 100 0.0 SSW 26 30 14 16 1004.3 1005.9 17.8
30/10:30pm 1.7 -4.2 1.7 100 0.0 SSW 22 28 12 15 1004.1 1005.6 17.6
30/10:00pm 1.6 -4.7 1.6 100 0.0 SSW 24 32 13 17 1003.5 1005.1 17.6
30/09:30pm 2.1 -2.0 2.1 100 0.0 SSE 13 15 7 8 1003.2 1004.7 17.6
30/09:00pm 1.5 -2.7 1.5 100 0.0 ESE 13 15 7 8 1002.7 1004.3 17.6
30/08:30pm 1.6 -1.5 1.6 100 0.0 ESE 7 9 4 5 1002.8 1004.4 17.6
30/08:00pm 1.6 -1.8 1.6 100 0.0 SE 9 9 5 5 1002.7 1004.3 17.6
30/07:30pm 1.3 -3.3 1.3 100 0.0 S 15 19 8 10 1002.5 1004.0 17.4
30/07:00pm 1.4 -4.2 1.4 100 0.0 SSW 20 22 11 12 1002.2 1003.7 17.4
30/06:30pm 1.4 -3.2 1.4 100 0.0 SW 15 20 8 11 1001.7 1003.2 17.0
30/06:00pm 0.9 -4.6 0.9 100 0.0 W 19 22 10 12 1001.4 1002.9 14.6
30/05:30pm 1.4 -3.6 1.4 100 0.0 WNW 17 24 9 13 1000.9 1002.4 11.8
30/05:00pm 2.0 -2.5 2.0 100 0.0 NNW 15 22 8 12 1000.4 1001.8 10.6
30/04:30pm 2.0 -2.9 2.0 100 0.0 NW 17 26 9 14 999.9 1001.4 9.8
30/04:00pm 2.3 -2.6 2.3 100 0.0 NW 17 32 9 17 999.7 1001.2 9.0
30/03:30pm 2.4 -4.1 2.4 100 0.0 NNW 26 37 14 20 999.5 1000.9 7.8
30/03:00pm 3.1 -4.1 3.1 100 0.0 NNW 30 41 16 22 999.2 1000.6 7.2
30/02:30pm 3.0 -5.1 3.0 100 0.0 NNW 35 57 19 31 998.7 1000.1 5.0
30/02:07pm 3.3 -4.4 3.3 100 0.0 N 33 52 18 28 998.7 1000.1 3.8
30/02:00pm 3.3 -4.4 3.3 100 0.0 N 33 50 18 27 998.7 1000.1 3.2
30/01:30pm 3.2 -4.9 3.2 100 0.0 N 35 48 19 26 998.9 1000.4 2.8
30/01:00pm 2.9 -5.3 2.9 100 0.0 N 35 50 19 27 998.9 1000.4 2.2
30/12:30pm 2.7 -6.6 2.7 100 0.0 N 41 56 22 30 999.3 1000.7 1.6
30/12:23pm 2.6 -6.0 2.6 100 0.0 N 37 56 20 30 999.5 1000.9 1.6
30/12:00pm 2.6 -6.8 2.6 100 0.0 N 41 56 22 30 999.9 1001.4 1.6
30/11:47am 2.6 -7.3 2.6 100 0.0 N 44 69 24 37 999.8 1001.3 1.4
30/11:30am 2.6 -6.8 2.6 100 0.0 N 41 56 22 30 1000.3 1001.7 1.4
30/11:07am 2.6 -6.8 2.6 100 0.0 N 41 63 22 34 1000.6 1002.1 1.0
30/11:00am 2.6 -7.1 2.6 100 0.0 N 43 57 23 31 1000.8 1002.3 0.8
30/10:30am 2.5 -7.8 2.5 100 0.0 N 46 65 25 35 1000.9 1002.4 0.6
30/10:00am 2.4 -8.3 2.4 100 0.0 N 48 76 26 41 1000.9 1002.4 0.2
30/09:50am 2.4 -7.9 2.4 100 0.0 N 46 65 25 35 1001.1 1002.5 0.2
30/09:30am 2.5 -8.2 2.5 100 0.0 N 48 65 26 35 1001.1 1002.5 0.0
30/09:04am 2.5 -8.2 2.5 100 0.0 N 48 69 26 37 1001.2 1002.6 0.0
30/09:00am 2.5 -8.2 2.5 100 0.0 N 48 67 26 36 1001.2 1002.6 7.2
30/08:34am 2.5 -8.2 2.5 100 0.0 N 48 69 26 37 1001.5 1003.0 7.2
30/08:30am 2.5 -7.8 2.5 100 0.0 N 46 61 25 33 1001.5 1003.0 7.0
30/08:03am 2.4 -9.5 2.4 100 0.0 N 54 76 29 41 1001.5 1003.0 7.0
30/08:00am 2.4 -9.1 2.4 100 0.0 N 52 70 28 38 1001.5 1003.0 7.0
30/07:30am 2.3 -8.8 2.3 100 0.0 N 50 74 27 40 1002.1 1003.6 6.8
30/07:03am 2.1 -7.9 2.1 100 0.0 N 44 65 24 35 1002.4 1003.9 6.8
30/07:00am 2.2 -8.2 2.2 100 0.0 N 46 61 25 33 1002.4 1003.9 6.8
30/06:30am 2.1 -8.3 2.1 100 0.0 N 46 70 25 38 1003.0 1004.5 6.6
30/06:10am 2.1 -8.7 2.1 100 0.0 N 48 69 26 37 1003.2 1004.7 6.4
30/06:00am 2.0 -9.2 2.0 100 0.0 N 50 61 27 33 1003.3 1004.8 6.4
30/05:30am 2.1 -9.1 2.1 100 0.0 N 50 76 27 41 1003.5 1005.1 6.4
30/05:02am 2.0 -8.8 2.0 100 0.0 N 48 67 26 36 1003.8 1005.4 6.0
30/05:00am 2.0 -8.4 2.0 100 0.0 N 46 59 25 32 1004.0 1005.5 5.8
30/04:34am 2.0 -9.6 2.0 100 0.0 N 52 72 28 39 1004.5 1006.1 4.8
30/04:30am 1.9 -10.0 1.9 100 0.0 N 54 72 29 39 1004.5 1006.1 4.8
30/04:00am 1.9 -10.0 1.9 100 0.0 N 54 74 29 40 1005.0 1006.5 4.4
30/03:30am 1.9 -10.0 1.9 100 0.0 N 54 72 29 39 1005.5 1007.1 4.4
30/03:00am 1.8 -10.2 1.8 100 0.0 N 54 76 29 41 1006.3 1007.9 4.2
30/02:30am 1.8 -10.5 1.8 100 0.0 N 56 78 30 42 1006.9 1008.5 4.2
30/02:00am 1.7 -10.3 1.7 100 0.0 N 54 72 29 39 1007.6 1009.3 4.2
30/01:30am 1.7 -9.5 1.7 100 0.0 N 50 72 27 39 1008.1 1009.8 4.2
30/01:04am 1.8 -9.4 1.8 100 0.0 N 50 69 27 37 1008.8 1010.4 4.0
30/01:00am 1.8 -9.4 1.8 100 0.0 N 50 67 27 36 1008.8 1010.4 4.0
30/12:46am 1.8 -8.6 1.8 100 0.0 N 46 65 25 35 1009.3 1011.0 4.0
30/12:30am 1.8 -9.0 1.8 100 0.0 N 48 63 26 34 1009.5 1011.2 4.0
30/12:05am 2.0 -8.8 2.0 100 0.0 N 48 70 26 38 1010.0 1011.7 4.0
30/12:00am 2.0 -8.4 2.0 100 0.0 N 46 63 25 34 1010.2 1011.9 4.0
 
Date/Time
EST
Temp
°C
App
Temp
°C
Dew
Point
°C
Rel
Hum
%
Delta-T
°C
Wind Press
QNH
hPa
Press
MSL
hPa
Rain since
9am
mm
Dir  Spd
km/h
Gust
km/h
Spd
kts
Gust
kts
29/11:56pm 2.0 -8.0 2.0 100 0.0 N 44 63 24 34 1010.3 1012.0 4.0
29/11:30pm 2.1 -9.1 2.1 100 0.0 N 50 63 27 34 1010.5 1012.3 4.0
29/11:00pm 2.5 -9.3 2.5 100 0.0 N 54 78 29 42 1011.0 1012.7 4.0
29/10:34pm 2.6 -8.1 2.6 100 0.0 N 48 67 26 36 1011.6 1013.4 4.0
29/10:30pm 2.6 -8.8 2.6 100 0.0 N 52 70 28 38 1011.6 1013.4 4.0
29/10:00pm 2.8 -9.0 2.8 100 0.0 N 54 74 29 40 1012.2 1014.0 4.0
29/09:32pm 2.7 -7.6 2.7 100 0.0 N 46 65 25 35 1012.5 1014.3 4.0
29/09:30pm 2.7 -7.2 2.7 100 0.0 N 44 59 24 32 1012.5 1014.3 4.0
29/09:00pm 2.8 -7.1 2.8 100 0.0 N 44 63 24 34 1013.1 1014.9 4.0
29/08:30pm 2.9 -5.6 2.9 100 0.0 N 37 46 20 25 1013.7 1015.5 4.0
29/08:17pm 2.8 -6.5 2.8 100 0.0 N 41 59 22 32 1013.8 1015.6 4.0
29/08:00pm 2.8 -6.5 2.8 100 0.0 N 41 56 22 30 1014.1 1015.9 4.0
29/07:30pm 2.9 -6.0 2.9 100 0.0 N 39 52 21 28 1014.3 1016.2 4.0
29/07:00pm 3.0 -4.6 3.0 100 0.0 N 32 43 17 23 1014.8 1016.6 3.8
29/06:30pm 3.1 -4.5 3.1 100 0.0 N 32 46 17 25 1015.2 1017.1 3.8
29/06:00pm 3.3 -4.2 3.3 100 0.0 N 32 43 17 23 1015.6 1017.4 3.8
29/05:30pm 3.4 -4.3 3.4 100 0.0 N 33 48 18 26 1015.8 1017.7 3.8
29/05:00pm 3.5 -4.6 3.5 100 0.0 N 35 50 19 27 1016.1 1018.0 3.6
29/04:46pm 3.9 -3.1 3.9 100 0.0 N 30 50 16 27 1016.2 1018.1 3.4
29/04:30pm 3.9 -3.5 3.9 100 0.0 N 32 43 17 23 1016.3 1018.2 1.8
29/04:00pm 4.0 -3.4 4.0 100 0.0 N 32 46 17 25 1016.6 1018.5 1.2
29/03:56pm 3.9 -2.8 3.9 100 0.0 N 28 41 15 22 1016.7 1018.6 0.8
29/03:30pm 3.9 -0.7 3.9 100 0.0 N 17 20 9 11 1017.2 1019.2 0.2
29/03:00pm 4.2 -0.3 4.2 100 0.0 NNW 17 22 9 12 1017.6 1019.5 0.2
29/02:30pm 4.1 -1.4 4.1 100 0.0 NNW 22 35 12 19 1017.7 1019.6 0.2
29/02:00pm 4.2 -1.3 4.2 100 0.0 NNW 22 35 12 19 1018.0 1020.0 0.2
29/01:30pm 3.7 -1.5 3.7 100 0.0 NW 20 33 11 18 1018.2 1020.2 0.2
29/01:00pm 4.6 -1.2 4.6 100 0.0 NNW 24 35 13 19 1018.6 1020.5 0.2
29/12:45pm 4.0 -2.6 4.0 100 0.0 NNW 28 46 15 25 1018.7 1020.6 0.2
29/12:30pm 3.9 -3.1 3.9 100 0.0 NNW 30 46 16 25 1018.9 1020.9 0.2
29/12:00pm 3.9 -1.2 3.9 100 0.0 NNW 20 33 11 18 1019.5 1021.4 0.2
29/11:30am 4.0 -0.5 4.0 100 0.0 NW 17 35 9 19 1019.8 1021.8 0.2
29/11:00am 4.2 -2.0 4.2 100 0.0 NW 26 50 14 27 1020.0 1022.0 0.2
29/10:35am 4.0 -2.6 4.0 100 0.0 NW 28 50 15 27 1020.0 1022.0 0.2
29/10:30am 4.1 -1.4 4.1 100 0.0 NW 22 50 12 27 1020.0 1022.0 0.2
29/10:17am 4.0 -2.6 4.0 100 0.0 WNW 28 46 15 25 1020.0 1022.0 0.2
29/10:00am 4.2 -1.3 4.2 100 0.0 NW 22 44 12 24 1020.0 1022.0 0.2
29/09:42am 4.0 -2.3 4.0 100 0.0 WNW 26 50 14 27 1019.9 1021.9 0.0
29/09:33am 4.1 -4.2 4.1 100 0.0 WNW 37 56 20 30 1019.9 1021.9 0.0
29/09:30am 3.9 -4.8 3.9 100 0.0 WNW 39 56 21 30 1019.7 1021.7 0.0
29/09:00am 4.2 -3.2 4.2 100 0.0 WNW 32 54 17 29 1019.7 1021.7 38.4
29/08:30am 4.0 -1.9 4.0 100 0.0 NW 24 52 13 28 1019.5 1021.4 37.4
29/08:29am 4.1 -1.0 4.1 100 0.0 NW 20 52 11 28 1019.3 1021.3 37.2
29/08:23am 4.3 -1.1 4.3 100 0.0 NW 22 44 12 24 1019.5 1021.4 36.0
29/08:03am 4.4 -4.2 4.4 100 0.0 WNW 39 59 21 32 1019.1 1021.1 35.0
29/08:00am 4.3 -4.7 4.3 100 0.0 WNW 41 59 22 32 1019.0 1021.0 34.8
29/07:34am 4.4 -4.2 4.4 100 0.0 WNW 39 57 21 31 1018.6 1020.5 32.6
29/07:30am 4.4 -3.9 4.4 100 0.0 WNW 37 52 20 28 1018.8 1020.8 32.6
29/07:00am 4.5 -3.7 4.5 100 0.0 WNW 37 56 20 30 1018.7 1020.6 31.0
29/06:35am 4.4 -5.2 4.4 100 0.0 WNW 44 63 24 34 1018.1 1020.1 30.4
29/06:30am 4.5 -4.9 4.5 100 0.0 WNW 43 59 23 32 1018.1 1020.1 30.4
29/06:01am 4.6 -4.0 4.6 100 0.0 WNW 39 59 21 32 1017.7 1019.6 28.4
29/06:00am 4.7 -3.9 4.7 100 0.0 WNW 39 54 21 29 1017.9 1019.8 28.4
29/05:30am 4.7 -4.7 4.7 100 0.0 WNW 43 61 23 33 1017.4 1019.4 27.6
29/05:00am 4.6 -2.9 4.6 100 0.0 WNW 33 54 18 29 1017.4 1019.4 25.4

Other Formats:

Comma delimited format used in spreadsheet applications
http://www.bom.gov.au/fwo/IDT60801/IDT60801.95952.axf

JavaScript Object Notation format (JSON) in row-major order
http://www.bom.gov.au/fwo/IDT60801/IDT60801.95952.json